sensor_id;sensor_type;location;lat;lon;timestamp;temperature;humidity
4615;DHT22;2320;51.362;6.946;2024-01-06T00:02:15;7.80;99.90
4615;DHT22;2320;51.362;6.946;2024-01-06T00:04:41;7.70;99.90
4615;DHT22;2320;51.362;6.946;2024-01-06T00:07:06;7.70;99.90
4615;DHT22;2320;51.362;6.946;2024-01-06T00:09:32;7.80;99.90
4615;DHT22;2320;51.362;6.946;2024-01-06T00:11:57;7.60;99.90
4615;DHT22;2320;51.362;6.946;2024-01-06T00:14:23;7.70;99.90
4615;DHT22;2320;51.362;6.946;2024-01-06T00:16:48;7.80;99.90
4615;DHT22;2320;51.362;6.946;2024-01-06T00:19:14;7.70;99.90
4615;DHT22;2320;51.362;6.946;2024-01-06T00:21:40;7.60;99.90
4615;DHT22;2320;51.362;6.946;2024-01-06T00:24:05;7.60;99.90
4615;DHT22;2320;51.362;6.946;2024-01-06T00:26:31;7.60;99.90
4615;DHT22;2320;51.362;6.946;2024-01-06T00:28:57;7.60;99.90
4615;DHT22;2320;51.362;6.946;2024-01-06T00:31:22;7.70;99.90
4615;DHT22;2320;51.362;6.946;2024-01-06T00:33:48;7.60;99.90
4615;DHT22;2320;51.362;6.946;2024-01-06T00:36:13;7.60;99.90
4615;DHT22;2320;51.362;6.946;2024-01-06T00:38:39;7.60;99.90
4615;DHT22;2320;51.362;6.946;2024-01-06T00:41:04;7.70;99.90
4615;DHT22;2320;51.362;6.946;2024-01-06T00:43:30;7.60;99.90
4615;DHT22;2320;51.362;6.946;2024-01-06T00:45:56;7.60;99.90
4615;DHT22;2320;51.362;6.946;2024-01-06T00:48:21;7.70;99.90
4615;DHT22;2320;51.362;6.946;2024-01-06T00:50:47;7.70;99.90
4615;DHT22;2320;51.362;6.946;2024-01-06T00:53:14;7.70;99.90
4615;DHT22;2320;51.362;6.946;2024-01-06T00:55:39;7.60;99.90
4615;DHT22;2320;51.362;6.946;2024-01-06T00:58:05;7.70;99.90
4615;DHT22;2320;51.362;6.946;2024-01-06T01:00:30;7.70;99.90
4615;DHT22;2320;51.362;6.946;2024-01-06T01:02:56;7.60;99.90
4615;DHT22;2320;51.362;6.946;2024-01-06T01:05:22;7.60;99.90
4615;DHT22;2320;51.362;6.946;2024-01-06T01:07:48;7.70;99.90
4615;DHT22;2320;51.362;6.946;2024-01-06T01:10:13;7.70;99.90
4615;DHT22;2320;51.362;6.946;2024-01-06T01:12:39;7.70;99.90
4615;DHT22;2320;51.362;6.946;2024-01-06T01:15:05;7.70;99.90
4615;DHT22;2320;51.362;6.946;2024-01-06T01:17:31;7.70;99.90
4615;DHT22;2320;51.362;6.946;2024-01-06T01:19:56;7.80;99.90
4615;DHT22;2320;51.362;6.946;2024-01-06T01:22:22;7.70;99.90
4615;DHT22;2320;51.362;6.946;2024-01-06T01:24:47;7.70;99.90
4615;DHT22;2320;51.362;6.946;2024-01-06T01:27:13;7.70;99.90
4615;DHT22;2320;51.362;6.946;2024-01-06T01:29:38;7.80;99.90
4615;DHT22;2320;51.362;6.946;2024-01-06T01:32:04;7.80;99.90
4615;DHT22;2320;51.362;6.946;2024-01-06T01:34:30;7.80;99.90
4615;DHT22;2320;51.362;6.946;2024-01-06T01:36:56;7.90;99.90
4615;DHT22;2320;51.362;6.946;2024-01-06T01:39:21;7.80;99.90
4615;DHT22;2320;51.362;6.946;2024-01-06T01:41:47;7.70;99.90
4615;DHT22;2320;51.362;6.946;2024-01-06T01:44:13;7.80;99.90
4615;DHT22;2320;51.362;6.946;2024-01-06T01:46:38;7.80;99.90
4615;DHT22;2320;51.362;6.946;2024-01-06T01:49:04;7.80;99.90
4615;DHT22;2320;51.362;6.946;2024-01-06T01:51:33;7.80;99.90
4615;DHT22;2320;51.362;6.946;2024-01-06T01:54:00;7.80;99.90
4615;DHT22;2320;51.362;6.946;2024-01-06T01:56:26;7.80;99.90
4615;DHT22;2320;51.362;6.946;2024-01-06T01:58:52;7.80;99.90
4615;DHT22;2320;51.362;6.946;2024-01-06T02:01:18;7.80;99.90
4615;DHT22;2320;51.362;6.946;2024-01-06T02:03:44;7.80;99.90
4615;DHT22;2320;51.362;6.946;2024-01-06T02:06:10;7.80;99.90
4615;DHT22;2320;51.362;6.946;2024-01-06T02:08:36;7.70;99.90
4615;DHT22;2320;51.362;6.946;2024-01-06T02:11:01;7.80;99.90
4615;DHT22;2320;51.362;6.946;2024-01-06T02:13:35;7.90;99.90
4615;DHT22;2320;51.362;6.946;2024-01-06T02:16:03;8.00;99.90
4615;DHT22;2320;51.362;6.946;2024-01-06T02:18:30;7.90;99.90
4615;DHT22;2320;51.362;6.946;2024-01-06T02:20:58;8.00;99.90
4615;DHT22;2320;51.362;6.946;2024-01-06T02:23:24;8.00;99.90
4615;DHT22;2320;51.362;6.946;2024-01-06T02:25:49;7.90;99.90
4615;DHT22;2320;51.362;6.946;2024-01-06T02:28:15;7.90;99.90
4615;DHT22;2320;51.362;6.946;2024-01-06T02:30:41;7.90;99.90
4615;DHT22;2320;51.362;6.946;2024-01-06T02:33:06;7.90;99.90
4615;DHT22;2320;51.362;6.946;2024-01-06T02:35:32;8.00;99.90
4615;DHT22;2320;51.362;6.946;2024-01-06T02:37:57;8.00;99.90
4615;DHT22;2320;51.362;6.946;2024-01-06T02:40:23;7.90;99.90
4615;DHT22;2320;51.362;6.946;2024-01-06T02:42:48;7.80;99.90
4615;DHT22;2320;51.362;6.946;2024-01-06T02:45:14;7.70;99.90
4615;DHT22;2320;51.362;6.946;2024-01-06T02:47:39;7.70;99.90
4615;DHT22;2320;51.362;6.946;2024-01-06T02:50:05;7.70;99.90
4615;DHT22;2320;51.362;6.946;2024-01-06T02:52:31;7.80;99.90
4615;DHT22;2320;51.362;6.946;2024-01-06T02:54:57;7.70;99.90
4615;DHT22;2320;51.362;6.946;2024-01-06T02:57:22;7.60;99.90
4615;DHT22;2320;51.362;6.946;2024-01-06T02:59:48;7.70;99.90
4615;DHT22;2320;51.362;6.946;2024-01-06T03:02:14;7.70;99.90
4615;DHT22;2320;51.362;6.946;2024-01-06T03:04:39;7.80;99.90
4615;DHT22;2320;51.362;6.946;2024-01-06T03:07:05;7.70;99.90
4615;DHT22;2320;51.362;6.946;2024-01-06T03:09:30;7.70;99.90
4615;DHT22;2320;51.362;6.946;2024-01-06T03:11:56;7.70;99.90
4615;DHT22;2320;51.362;6.946;2024-01-06T03:14:21;7.80;99.90
4615;DHT22;2320;51.362;6.946;2024-01-06T03:16:47;7.80;99.90
4615;DHT22;2320;51.362;6.946;2024-01-06T03:19:13;7.90;99.90
4615;DHT22;2320;51.362;6.946;2024-01-06T03:21:38;7.90;99.90
4615;DHT22;2320;51.362;6.946;2024-01-06T03:24:04;8.00;99.90
4615;DHT22;2320;51.362;6.946;2024-01-06T03:26:30;7.90;99.90
4615;DHT22;2320;51.362;6.946;2024-01-06T03:28:56;7.90;99.90
4615;DHT22;2320;51.362;6.946;2024-01-06T03:31:21;7.90;99.90
4615;DHT22;2320;51.362;6.946;2024-01-06T03:33:47;7.90;99.90
4615;DHT22;2320;51.362;6.946;2024-01-06T03:36:13;7.90;99.90
4615;DHT22;2320;51.362;6.946;2024-01-06T03:38:41;7.80;99.90
4615;DHT22;2320;51.362;6.946;2024-01-06T03:41:06;7.80;99.90
4615;DHT22;2320;51.362;6.946;2024-01-06T03:43:33;7.90;99.90
4615;DHT22;2320;51.362;6.946;2024-01-06T03:45:58;8.00;99.90
4615;DHT22;2320;51.362;6.946;2024-01-06T03:48:25;8.00;99.90
4615;DHT22;2320;51.362;6.946;2024-01-06T03:50:51;8.10;99.90
4615;DHT22;2320;51.362;6.946;2024-01-06T03:53:17;7.90;99.90
4615;DHT22;2320;51.362;6.946;2024-01-06T03:55:42;7.70;99.90
4615;DHT22;2320;51.362;6.946;2024-01-06T03:58:08;7.50;99.90
4615;DHT22;2320;51.362;6.946;2024-01-06T04:00:34;7.40;99.90
4615;DHT22;2320;51.362;6.946;2024-01-06T04:02:59;7.40;99.90
4615;DHT22;2320;51.362;6.946;2024-01-06T04:05:25;7.40;99.90
4615;DHT22;2320;51.362;6.946;2024-01-06T04:07:52;7.30;99.90
4615;DHT22;2320;51.362;6.946;2024-01-06T04:10:17;7.20;99.90
4615;DHT22;2320;51.362;6.946;2024-01-06T04:12:43;7.20;99.90
4615;DHT22;2320;51.362;6.946;2024-01-06T04:15:08;7.30;99.90
4615;DHT22;2320;51.362;6.946;2024-01-06T04:17:34;7.40;99.90
4615;DHT22;2320;51.362;6.946;2024-01-06T04:20:00;7.30;99.90
4615;DHT22;2320;51.362;6.946;2024-01-06T04:22:25;7.30;99.90
4615;DHT22;2320;51.362;6.946;2024-01-06T04:24:51;7.10;99.90
4615;DHT22;2320;51.362;6.946;2024-01-06T04:27:17;7.00;99.90
4615;DHT22;2320;51.362;6.946;2024-01-06T04:29:43;7.10;99.90
4615;DHT22;2320;51.362;6.946;2024-01-06T04:32:09;7.00;99.90
4615;DHT22;2320;51.362;6.946;2024-01-06T04:34:34;7.10;99.90
4615;DHT22;2320;51.362;6.946;2024-01-06T04:37:00;6.90;99.90
4615;DHT22;2320;51.362;6.946;2024-01-06T04:39:26;6.90;99.90
4615;DHT22;2320;51.362;6.946;2024-01-06T04:41:51;6.80;99.90
4615;DHT22;2320;51.362;6.946;2024-01-06T04:44:20;6.80;99.90
4615;DHT22;2320;51.362;6.946;2024-01-06T04:46:46;6.80;99.90
4615;DHT22;2320;51.362;6.946;2024-01-06T04:49:12;6.80;99.90
4615;DHT22;2320;51.362;6.946;2024-01-06T04:51:37;6.90;99.90
4615;DHT22;2320;51.362;6.946;2024-01-06T04:54:03;6.70;99.90
4615;DHT22;2320;51.362;6.946;2024-01-06T04:56:29;6.70;99.90
4615;DHT22;2320;51.362;6.946;2024-01-06T04:58:55;6.70;99.90
4615;DHT22;2320;51.362;6.946;2024-01-06T05:01:20;6.70;99.90
4615;DHT22;2320;51.362;6.946;2024-01-06T05:03:46;6.80;99.90
4615;DHT22;2320;51.362;6.946;2024-01-06T05:06:12;6.80;99.90
4615;DHT22;2320;51.362;6.946;2024-01-06T05:08:38;6.70;99.90
4615;DHT22;2320;51.362;6.946;2024-01-06T05:11:10;6.70;99.90
4615;DHT22;2320;51.362;6.946;2024-01-06T05:13:36;6.80;99.90
4615;DHT22;2320;51.362;6.946;2024-01-06T05:16:02;6.80;99.90
4615;DHT22;2320;51.362;6.946;2024-01-06T05:18:28;6.60;99.90
4615;DHT22;2320;51.362;6.946;2024-01-06T05:20:54;6.60;99.90
4615;DHT22;2320;51.362;6.946;2024-01-06T05:23:19;6.70;99.90
4615;DHT22;2320;51.362;6.946;2024-01-06T05:25:45;6.60;99.90
4615;DHT22;2320;51.362;6.946;2024-01-06T05:28:11;6.60;99.90
4615;DHT22;2320;51.362;6.946;2024-01-06T05:30:36;6.60;99.90
4615;DHT22;2320;51.362;6.946;2024-01-06T05:33:02;6.60;99.90
4615;DHT22;2320;51.362;6.946;2024-01-06T05:35:29;6.70;99.90
4615;DHT22;2320;51.362;6.946;2024-01-06T05:37:55;6.70;99.90
4615;DHT22;2320;51.362;6.946;2024-01-06T05:40:20;6.90;99.90
4615;DHT22;2320;51.362;6.946;2024-01-06T05:42:46;6.80;99.90
4615;DHT22;2320;51.362;6.946;2024-01-06T05:45:12;6.90;99.90
4615;DHT22;2320;51.362;6.946;2024-01-06T05:47:38;6.80;99.90
4615;DHT22;2320;51.362;6.946;2024-01-06T05:50:04;6.70;99.90
4615;DHT22;2320;51.362;6.946;2024-01-06T05:52:30;6.70;99.90
4615;DHT22;2320;51.362;6.946;2024-01-06T05:54:56;6.70;99.90
4615;DHT22;2320;51.362;6.946;2024-01-06T05:57:21;6.70;99.90
4615;DHT22;2320;51.362;6.946;2024-01-06T05:59:47;6.60;99.90
4615;DHT22;2320;51.362;6.946;2024-01-06T06:02:12;6.70;99.90
4615;DHT22;2320;51.362;6.946;2024-01-06T06:04:39;6.70;99.90
4615;DHT22;2320;51.362;6.946;2024-01-06T06:07:04;6.70;99.90
4615;DHT22;2320;51.362;6.946;2024-01-06T06:09:30;6.60;99.90
4615;DHT22;2320;51.362;6.946;2024-01-06T06:11:56;6.70;99.90
4615;DHT22;2320;51.362;6.946;2024-01-06T06:14:21;6.70;99.90
4615;DHT22;2320;51.362;6.946;2024-01-06T06:16:47;6.70;99.90
4615;DHT22;2320;51.362;6.946;2024-01-06T06:19:13;6.70;99.90
4615;DHT22;2320;51.362;6.946;2024-01-06T06:21:39;6.80;99.90
4615;DHT22;2320;51.362;6.946;2024-01-06T06:24:04;6.70;99.90
4615;DHT22;2320;51.362;6.946;2024-01-06T06:26:30;6.70;99.90
4615;DHT22;2320;51.362;6.946;2024-01-06T06:28:56;6.70;99.90
4615;DHT22;2320;51.362;6.946;2024-01-06T06:31:22;6.80;99.90
4615;DHT22;2320;51.362;6.946;2024-01-06T06:33:47;6.70;99.90
4615;DHT22;2320;51.362;6.946;2024-01-06T06:36:13;6.70;99.90
4615;DHT22;2320;51.362;6.946;2024-01-06T06:38:39;6.70;99.90
4615;DHT22;2320;51.362;6.946;2024-01-06T06:41:04;6.70;99.90
4615;DHT22;2320;51.362;6.946;2024-01-06T06:43:30;6.50;99.90
4615;DHT22;2320;51.362;6.946;2024-01-06T06:45:55;6.50;99.90
4615;DHT22;2320;51.362;6.946;2024-01-06T06:48:21;6.50;99.90
4615;DHT22;2320;51.362;6.946;2024-01-06T06:50:47;6.60;99.90
4615;DHT22;2320;51.362;6.946;2024-01-06T06:53:13;6.60;99.90
4615;DHT22;2320;51.362;6.946;2024-01-06T06:55:39;6.70;99.90
4615;DHT22;2320;51.362;6.946;2024-01-06T06:58:06;6.60;99.90
4615;DHT22;2320;51.362;6.946;2024-01-06T07:00:32;6.70;99.90
4615;DHT22;2320;51.362;6.946;2024-01-06T07:02:58;6.60;99.90
4615;DHT22;2320;51.362;6.946;2024-01-06T07:05:24;6.60;99.90
4615;DHT22;2320;51.362;6.946;2024-01-06T07:07:49;6.60;99.90
4615;DHT22;2320;51.362;6.946;2024-01-06T07:10:15;6.50;99.90
4615;DHT22;2320;51.362;6.946;2024-01-06T07:12:41;6.50;99.90
4615;DHT22;2320;51.362;6.946;2024-01-06T07:15:06;6.60;99.90
4615;DHT22;2320;51.362;6.946;2024-01-06T07:17:35;6.60;99.90
4615;DHT22;2320;51.362;6.946;2024-01-06T07:20:01;6.60;99.90
4615;DHT22;2320;51.362;6.946;2024-01-06T07:22:27;6.50;99.90
4615;DHT22;2320;51.362;6.946;2024-01-06T07:24:53;6.40;99.90
4615;DHT22;2320;51.362;6.946;2024-01-06T07:27:18;6.40;99.90
4615;DHT22;2320;51.362;6.946;2024-01-06T07:29:44;6.50;99.90
4615;DHT22;2320;51.362;6.946;2024-01-06T07:32:09;6.40;99.90
4615;DHT22;2320;51.362;6.946;2024-01-06T07:34:35;6.40;99.90
4615;DHT22;2320;51.362;6.946;2024-01-06T07:37:00;6.40;99.90
4615;DHT22;2320;51.362;6.946;2024-01-06T07:39:26;6.50;99.90
4615;DHT22;2320;51.362;6.946;2024-01-06T07:41:51;6.40;99.90
4615;DHT22;2320;51.362;6.946;2024-01-06T07:44:17;6.40;99.90
4615;DHT22;2320;51.362;6.946;2024-01-06T07:46:48;6.40;99.90
4615;DHT22;2320;51.362;6.946;2024-01-06T07:49:14;6.40;99.90
4615;DHT22;2320;51.362;6.946;2024-01-06T07:51:41;6.40;99.90
4615;DHT22;2320;51.362;6.946;2024-01-06T07:54:07;6.40;99.90
4615;DHT22;2320;51.362;6.946;2024-01-06T07:56:34;6.50;99.90
4615;DHT22;2320;51.362;6.946;2024-01-06T07:59:01;6.30;99.90
4615;DHT22;2320;51.362;6.946;2024-01-06T08:01:27;6.40;99.90
4615;DHT22;2320;51.362;6.946;2024-01-06T08:03:52;6.40;99.90
4615;DHT22;2320;51.362;6.946;2024-01-06T08:06:18;6.30;99.90
4615;DHT22;2320;51.362;6.946;2024-01-06T08:08:44;6.40;99.90
4615;DHT22;2320;51.362;6.946;2024-01-06T08:11:11;6.40;99.90
4615;DHT22;2320;51.362;6.946;2024-01-06T08:13:37;6.30;99.90
4615;DHT22;2320;51.362;6.946;2024-01-06T08:16:03;6.30;99.90
4615;DHT22;2320;51.362;6.946;2024-01-06T08:18:29;6.30;99.90
4615;DHT22;2320;51.362;6.946;2024-01-06T08:20:55;6.20;99.90
4615;DHT22;2320;51.362;6.946;2024-01-06T08:23:20;6.20;99.90
4615;DHT22;2320;51.362;6.946;2024-01-06T08:25:46;6.20;99.90
4615;DHT22;2320;51.362;6.946;2024-01-06T08:28:12;6.30;99.90
4615;DHT22;2320;51.362;6.946;2024-01-06T08:30:40;6.30;99.90
4615;DHT22;2320;51.362;6.946;2024-01-06T08:33:06;6.20;99.90
4615;DHT22;2320;51.362;6.946;2024-01-06T08:35:32;6.20;99.90
4615;DHT22;2320;51.362;6.946;2024-01-06T08:37:57;6.10;99.90
4615;DHT22;2320;51.362;6.946;2024-01-06T08:40:23;6.20;99.90
4615;DHT22;2320;51.362;6.946;2024-01-06T08:42:49;6.10;99.90
4615;DHT22;2320;51.362;6.946;2024-01-06T08:45:14;6.00;99.90
4615;DHT22;2320;51.362;6.946;2024-01-06T08:47:40;6.00;99.90
4615;DHT22;2320;51.362;6.946;2024-01-06T08:50:07;6.00;99.90
4615;DHT22;2320;51.362;6.946;2024-01-06T08:52:32;6.00;99.90
4615;DHT22;2320;51.362;6.946;2024-01-06T08:54:58;6.00;99.90
4615;DHT22;2320;51.362;6.946;2024-01-06T08:57:23;6.00;99.90
4615;DHT22;2320;51.362;6.946;2024-01-06T08:59:49;5.90;99.90
4615;DHT22;2320;51.362;6.946;2024-01-06T09:02:15;5.90;99.90
4615;DHT22;2320;51.362;6.946;2024-01-06T09:04:40;6.00;99.90
4615;DHT22;2320;51.362;6.946;2024-01-06T09:07:06;6.10;99.90
4615;DHT22;2320;51.362;6.946;2024-01-06T09:09:31;6.10;99.90
4615;DHT22;2320;51.362;6.946;2024-01-06T09:11:57;5.90;99.90
4615;DHT22;2320;51.362;6.946;2024-01-06T09:14:23;6.00;99.90
4615;DHT22;2320;51.362;6.946;2024-01-06T09:16:48;6.00;99.90
4615;DHT22;2320;51.362;6.946;2024-01-06T09:19:14;6.00;99.90
4615;DHT22;2320;51.362;6.946;2024-01-06T09:21:40;6.10;99.90
4615;DHT22;2320;51.362;6.946;2024-01-06T09:24:05;6.10;99.90
4615;DHT22;2320;51.362;6.946;2024-01-06T09:26:34;6.10;99.90
4615;DHT22;2320;51.362;6.946;2024-01-06T09:29:01;6.10;99.90
4615;DHT22;2320;51.362;6.946;2024-01-06T09:31:27;6.10;99.90
4615;DHT22;2320;51.362;6.946;2024-01-06T09:33:52;6.10;99.90
4615;DHT22;2320;51.362;6.946;2024-01-06T09:36:18;6.10;99.90
4615;DHT22;2320;51.362;6.946;2024-01-06T09:38:43;6.00;99.90
4615;DHT22;2320;51.362;6.946;2024-01-06T09:41:09;5.80;99.90
4615;DHT22;2320;51.362;6.946;2024-01-06T09:43:35;5.90;99.90
4615;DHT22;2320;51.362;6.946;2024-01-06T09:46:06;6.00;99.90
4615;DHT22;2320;51.362;6.946;2024-01-06T09:48:40;6.10;99.90
4615;DHT22;2320;51.362;6.946;2024-01-06T09:51:11;5.90;99.90
4615;DHT22;2320;51.362;6.946;2024-01-06T09:53:43;5.90;99.90
4615;DHT22;2320;51.362;6.946;2024-01-06T09:56:12;5.90;99.90
4615;DHT22;2320;51.362;6.946;2024-01-06T09:58:40;5.90;99.90
4615;DHT22;2320;51.362;6.946;2024-01-06T10:01:06;5.90;99.90
4615;DHT22;2320;51.362;6.946;2024-01-06T10:03:35;6.00;99.90
4615;DHT22;2320;51.362;6.946;2024-01-06T10:06:01;6.00;99.90
4615;DHT22;2320;51.362;6.946;2024-01-06T10:08:29;5.90;99.90
4615;DHT22;2320;51.362;6.946;2024-01-06T10:10:55;5.90;99.90
4615;DHT22;2320;51.362;6.946;2024-01-06T10:13:20;5.90;99.90
4615;DHT22;2320;51.362;6.946;2024-01-06T10:15:46;5.90;99.90
4615;DHT22;2320;51.362;6.946;2024-01-06T10:18:12;5.90;99.90
4615;DHT22;2320;51.362;6.946;2024-01-06T10:20:38;6.00;99.90
4615;DHT22;2320;51.362;6.946;2024-01-06T10:23:07;6.10;99.90
4615;DHT22;2320;51.362;6.946;2024-01-06T10:25:34;6.10;99.90
4615;DHT22;2320;51.362;6.946;2024-01-06T10:28:00;6.00;99.90
4615;DHT22;2320;51.362;6.946;2024-01-06T10:30:28;6.10;99.90
4615;DHT22;2320;51.362;6.946;2024-01-06T10:32:54;6.10;99.90
4615;DHT22;2320;51.362;6.946;2024-01-06T10:35:19;6.10;99.90
4615;DHT22;2320;51.362;6.946;2024-01-06T10:37:45;6.10;99.90
4615;DHT22;2320;51.362;6.946;2024-01-06T10:40:14;6.00;99.90
4615;DHT22;2320;51.362;6.946;2024-01-06T10:42:44;6.00;99.90
4615;DHT22;2320;51.362;6.946;2024-01-06T10:45:12;6.00;99.90
4615;DHT22;2320;51.362;6.946;2024-01-06T10:47:39;5.90;99.90
4615;DHT22;2320;51.362;6.946;2024-01-06T10:50:05;5.90;99.90
4615;DHT22;2320;51.362;6.946;2024-01-06T10:52:31;5.80;99.90
4615;DHT22;2320;51.362;6.946;2024-01-06T10:54:57;5.80;99.90
4615;DHT22;2320;51.362;6.946;2024-01-06T10:57:23;5.80;99.90
4615;DHT22;2320;51.362;6.946;2024-01-06T10:59:51;5.80;99.90
4615;DHT22;2320;51.362;6.946;2024-01-06T11:02:17;5.80;99.90
4615;DHT22;2320;51.362;6.946;2024-01-06T11:04:46;5.80;99.90
4615;DHT22;2320;51.362;6.946;2024-01-06T11:07:19;5.80;99.90
4615;DHT22;2320;51.362;6.946;2024-01-06T11:10:14;5.80;99.90
4615;DHT22;2320;51.362;6.946;2024-01-06T11:12:43;5.80;99.90
4615;DHT22;2320;51.362;6.946;2024-01-06T11:15:09;5.70;99.90
4615;DHT22;2320;51.362;6.946;2024-01-06T11:17:51;5.70;99.90
4615;DHT22;2320;51.362;6.946;2024-01-06T11:20:26;5.80;99.90
4615;DHT22;2320;51.362;6.946;2024-01-06T11:22:52;5.70;99.90
4615;DHT22;2320;51.362;6.946;2024-01-06T11:25:19;5.70;99.90
4615;DHT22;2320;51.362;6.946;2024-01-06T11:27:49;5.70;99.90
4615;DHT22;2320;51.362;6.946;2024-01-06T11:30:22;5.60;99.90
4615;DHT22;2320;51.362;6.946;2024-01-06T11:32:50;5.60;99.90
4615;DHT22;2320;51.362;6.946;2024-01-06T11:35:18;5.50;99.90
4615;DHT22;2320;51.362;6.946;2024-01-06T11:40:22;5.50;99.90
4615;DHT22;2320;51.362;6.946;2024-01-06T11:43:11;5.60;99.90
4615;DHT22;2320;51.362;6.946;2024-01-06T11:45:41;5.60;99.90
4615;DHT22;2320;51.362;6.946;2024-01-06T11:48:08;5.60;99.90
4615;DHT22;2320;51.362;6.946;2024-01-06T11:50:36;5.70;99.90
4615;DHT22;2320;51.362;6.946;2024-01-06T11:53:03;5.60;99.90
4615;DHT22;2320;51.362;6.946;2024-01-06T11:55:29;5.60;99.90
4615;DHT22;2320;51.362;6.946;2024-01-06T11:57:57;5.70;99.90
4615;DHT22;2320;51.362;6.946;2024-01-06T12:00:27;5.60;99.90
4615;DHT22;2320;51.362;6.946;2024-01-06T12:03:00;5.50;99.90
4615;DHT22;2320;51.362;6.946;2024-01-06T12:05:27;5.60;99.90
4615;DHT22;2320;51.362;6.946;2024-01-06T12:08:00;5.40;99.90
4615;DHT22;2320;51.362;6.946;2024-01-06T12:10:28;5.40;99.90
4615;DHT22;2320;51.362;6.946;2024-01-06T12:13:07;5.30;99.90
4615;DHT22;2320;51.362;6.946;2024-01-06T12:15:36;5.50;99.90
4615;DHT22;2320;51.362;6.946;2024-01-06T12:18:05;5.50;99.90
4615;DHT22;2320;51.362;6.946;2024-01-06T12:20:31;5.50;99.90
4615;DHT22;2320;51.362;6.946;2024-01-06T12:22:57;5.40;99.90
4615;DHT22;2320;51.362;6.946;2024-01-06T12:25:24;5.40;99.90
4615;DHT22;2320;51.362;6.946;2024-01-06T12:27:51;5.40;99.90
4615;DHT22;2320;51.362;6.946;2024-01-06T12:30:19;5.50;99.90
4615;DHT22;2320;51.362;6.946;2024-01-06T12:32:46;5.50;99.90
4615;DHT22;2320;51.362;6.946;2024-01-06T12:35:12;5.50;99.90
4615;DHT22;2320;51.362;6.946;2024-01-06T12:37:39;5.30;99.90
4615;DHT22;2320;51.362;6.946;2024-01-06T12:40:05;5.30;99.90
4615;DHT22;2320;51.362;6.946;2024-01-06T12:42:33;5.30;99.90
4615;DHT22;2320;51.362;6.946;2024-01-06T12:44:59;5.40;99.90
4615;DHT22;2320;51.362;6.946;2024-01-06T12:47:24;5.40;99.90
4615;DHT22;2320;51.362;6.946;2024-01-06T12:49:50;5.40;99.90
4615;DHT22;2320;51.362;6.946;2024-01-06T12:52:15;5.20;99.90
4615;DHT22;2320;51.362;6.946;2024-01-06T12:54:41;5.20;99.90
4615;DHT22;2320;51.362;6.946;2024-01-06T12:57:07;5.10;99.90
4615;DHT22;2320;51.362;6.946;2024-01-06T12:59:33;5.00;99.90
4615;DHT22;2320;51.362;6.946;2024-01-06T13:01:58;4.90;99.90
4615;DHT22;2320;51.362;6.946;2024-01-06T13:04:24;5.00;99.90
4615;DHT22;2320;51.362;6.946;2024-01-06T13:06:50;5.00;99.90
4615;DHT22;2320;51.362;6.946;2024-01-06T13:09:16;4.90;99.90
4615;DHT22;2320;51.362;6.946;2024-01-06T13:11:42;4.70;99.90
4615;DHT22;2320;51.362;6.946;2024-01-06T13:14:08;4.50;99.90
4615;DHT22;2320;51.362;6.946;2024-01-06T13:16:34;4.60;99.90
4615;DHT22;2320;51.362;6.946;2024-01-06T13:19:00;4.50;99.90
4615;DHT22;2320;51.362;6.946;2024-01-06T13:21:26;4.50;99.90
4615;DHT22;2320;51.362;6.946;2024-01-06T13:23:54;4.60;99.90
4615;DHT22;2320;51.362;6.946;2024-01-06T13:26:25;4.50;99.90
4615;DHT22;2320;51.362;6.946;2024-01-06T13:28:50;4.50;99.90
4615;DHT22;2320;51.362;6.946;2024-01-06T13:31:16;4.40;99.90
4615;DHT22;2320;51.362;6.946;2024-01-06T13:33:42;4.40;99.90
4615;DHT22;2320;51.362;6.946;2024-01-06T13:36:07;4.50;99.90
4615;DHT22;2320;51.362;6.946;2024-01-06T13:38:33;4.60;99.90
4615;DHT22;2320;51.362;6.946;2024-01-06T13:40:58;4.60;99.90
4615;DHT22;2320;51.362;6.946;2024-01-06T13:43:24;4.60;99.90
4615;DHT22;2320;51.362;6.946;2024-01-06T13:45:49;4.60;99.90
4615;DHT22;2320;51.362;6.946;2024-01-06T13:48:15;4.60;99.90
4615;DHT22;2320;51.362;6.946;2024-01-06T13:50:41;4.50;99.90
4615;DHT22;2320;51.362;6.946;2024-01-06T13:53:07;4.50;99.90
4615;DHT22;2320;51.362;6.946;2024-01-06T13:55:32;4.50;99.90
4615;DHT22;2320;51.362;6.946;2024-01-06T13:58:01;4.50;99.90
4615;DHT22;2320;51.362;6.946;2024-01-06T14:00:27;4.60;99.90
4615;DHT22;2320;51.362;6.946;2024-01-06T14:02:52;4.50;99.90
4615;DHT22;2320;51.362;6.946;2024-01-06T14:05:19;4.60;99.90
4615;DHT22;2320;51.362;6.946;2024-01-06T14:07:45;4.50;99.90
4615;DHT22;2320;51.362;6.946;2024-01-06T14:10:14;4.60;99.90
4615;DHT22;2320;51.362;6.946;2024-01-06T14:12:40;4.60;99.90
4615;DHT22;2320;51.362;6.946;2024-01-06T14:15:07;4.40;99.90
4615;DHT22;2320;51.362;6.946;2024-01-06T14:17:33;4.30;99.90
4615;DHT22;2320;51.362;6.946;2024-01-06T14:19:58;4.40;99.90
4615;DHT22;2320;51.362;6.946;2024-01-06T14:22:24;4.30;99.90
4615;DHT22;2320;51.362;6.946;2024-01-06T14:24:50;4.40;99.90
4615;DHT22;2320;51.362;6.946;2024-01-06T14:27:16;4.40;99.90
4615;DHT22;2320;51.362;6.946;2024-01-06T14:29:42;4.30;99.90
4615;DHT22;2320;51.362;6.946;2024-01-06T14:32:07;4.30;99.90
4615;DHT22;2320;51.362;6.946;2024-01-06T14:34:33;4.30;99.90
4615;DHT22;2320;51.362;6.946;2024-01-06T14:36:59;4.20;99.90
4615;DHT22;2320;51.362;6.946;2024-01-06T14:39:25;4.30;99.90
4615;DHT22;2320;51.362;6.946;2024-01-06T14:41:50;4.20;99.90
4615;DHT22;2320;51.362;6.946;2024-01-06T14:44:17;4.30;99.90
4615;DHT22;2320;51.362;6.946;2024-01-06T14:46:45;4.30;99.90
4615;DHT22;2320;51.362;6.946;2024-01-06T14:49:11;4.20;99.90
4615;DHT22;2320;51.362;6.946;2024-01-06T14:51:36;4.20;99.90
4615;DHT22;2320;51.362;6.946;2024-01-06T14:54:02;4.30;99.90
4615;DHT22;2320;51.362;6.946;2024-01-06T14:56:28;4.30;99.90
4615;DHT22;2320;51.362;6.946;2024-01-06T14:58:56;4.20;99.90
4615;DHT22;2320;51.362;6.946;2024-01-06T15:01:22;4.30;99.90
4615;DHT22;2320;51.362;6.946;2024-01-06T15:03:47;4.30;99.90
4615;DHT22;2320;51.362;6.946;2024-01-06T15:06:13;4.20;99.90
4615;DHT22;2320;51.362;6.946;2024-01-06T15:08:39;4.20;99.90
4615;DHT22;2320;51.362;6.946;2024-01-06T15:11:04;4.10;99.90
4615;DHT22;2320;51.362;6.946;2024-01-06T15:13:32;4.10;99.90
4615;DHT22;2320;51.362;6.946;2024-01-06T15:15:57;4.10;99.90
4615;DHT22;2320;51.362;6.946;2024-01-06T15:18:23;4.10;99.90
4615;DHT22;2320;51.362;6.946;2024-01-06T15:20:49;4.00;99.90
4615;DHT22;2320;51.362;6.946;2024-01-06T15:23:15;4.00;99.90
4615;DHT22;2320;51.362;6.946;2024-01-06T15:25:44;4.00;99.90
4615;DHT22;2320;51.362;6.946;2024-01-06T15:28:09;4.00;99.90
4615;DHT22;2320;51.362;6.946;2024-01-06T15:30:35;4.10;99.90
4615;DHT22;2320;51.362;6.946;2024-01-06T15:33:00;4.00;99.90
4615;DHT22;2320;51.362;6.946;2024-01-06T15:35:26;4.00;99.90
4615;DHT22;2320;51.362;6.946;2024-01-06T15:37:52;4.00;99.90
4615;DHT22;2320;51.362;6.946;2024-01-06T15:40:17;4.00;99.90
4615;DHT22;2320;51.362;6.946;2024-01-06T15:42:43;4.00;99.90
4615;DHT22;2320;51.362;6.946;2024-01-06T15:45:09;4.00;99.90
4615;DHT22;2320;51.362;6.946;2024-01-06T15:47:37;4.00;99.90
4615;DHT22;2320;51.362;6.946;2024-01-06T15:50:03;3.90;99.90
4615;DHT22;2320;51.362;6.946;2024-01-06T15:52:28;4.00;99.90
4615;DHT22;2320;51.362;6.946;2024-01-06T15:54:54;3.90;99.90
4615;DHT22;2320;51.362;6.946;2024-01-06T15:57:20;4.00;99.90
4615;DHT22;2320;51.362;6.946;2024-01-06T15:59:45;3.90;99.90
4615;DHT22;2320;51.362;6.946;2024-01-06T16:02:11;4.00;99.90
4615;DHT22;2320;51.362;6.946;2024-01-06T16:04:37;3.90;99.90
4615;DHT22;2320;51.362;6.946;2024-01-06T16:07:03;4.00;99.90
4615;DHT22;2320;51.362;6.946;2024-01-06T16:09:31;3.90;99.90
4615;DHT22;2320;51.362;6.946;2024-01-06T16:11:56;4.10;99.90
4615;DHT22;2320;51.362;6.946;2024-01-06T16:14:24;4.10;99.90